createdAt,value
2018-06-03T00:01:40.589Z,21.20
2018-06-03T00:04:06.815Z,21.20
2018-06-03T00:06:32.992Z,21.00
2018-06-03T00:08:59.574Z,21.10
2018-06-03T00:11:25.775Z,21.10
2018-06-03T00:13:52.722Z,21.10
2018-06-03T00:16:20.464Z,21.10
2018-06-03T00:28:31.761Z,21.20
2018-06-03T00:30:57.931Z,20.90
2018-06-03T00:33:24.124Z,21.10
2018-06-03T00:36:03.486Z,21.40
2018-06-03T00:38:30.166Z,20.90
2018-06-03T00:40:57.081Z,20.90
2018-06-03T00:43:23.328Z,21.10
2018-06-03T00:45:49.512Z,21.00
2018-06-03T00:48:16.450Z,20.80
2018-06-03T00:50:43.362Z,20.80
2018-06-03T00:53:10.306Z,20.80
2018-06-03T00:55:37.362Z,20.80
2018-06-03T00:58:05.065Z,20.80
2018-06-03T01:00:31.267Z,20.80
2018-06-03T01:02:57.493Z,20.70
2018-06-03T01:05:26.098Z,20.70
2018-06-03T01:07:52.286Z,20.60
2018-06-03T01:10:19.994Z,20.70
2018-06-03T01:12:47.247Z,20.60
2018-06-03T01:15:14.345Z,21.10
2018-06-03T01:17:40.543Z,20.60
2018-06-03T01:20:06.802Z,20.20
2018-06-03T01:22:33.797Z,20.60
2018-06-03T01:24:59.988Z,20.60
2018-06-03T01:27:26.975Z,20.60
2018-06-03T01:29:53.562Z,20.60
2018-06-03T01:32:20.141Z,20.60
2018-06-03T01:34:46.325Z,20.20
2018-06-03T01:37:12.537Z,20.90
2018-06-03T01:39:38.723Z,20.30
2018-06-03T01:42:05.332Z,20.50
2018-06-03T01:44:32.254Z,20.60
2018-06-03T01:46:59.956Z,20.60
2018-06-03T01:49:26.214Z,20.70
2018-06-03T01:51:52.415Z,20.70
2018-06-03T01:54:18.635Z,20.50
2018-06-03T01:56:45.625Z,20.50
2018-06-03T01:59:15.739Z,20.40
2018-06-03T02:01:41.933Z,20.40
2018-06-03T02:04:10.398Z,20.40
2018-06-03T02:06:36.988Z,20.50
2018-06-03T02:09:04.311Z,20.50
2018-06-03T02:11:30.869Z,20.50
2018-06-03T02:13:58.217Z,20.50
2018-06-03T02:16:24.356Z,20.50
2018-06-03T02:18:50.902Z,20.40
2018-06-03T02:21:18.098Z,20.20
2018-06-03T02:23:48.613Z,20.40
2018-06-03T02:26:14.818Z,20.30
2018-06-03T02:29:23.221Z,20.30
2018-06-03T02:31:50.750Z,20.30
2018-06-03T02:34:18.273Z,20.10
2018-06-03T02:36:45.944Z,20.20
2018-06-03T02:39:13.501Z,20.20
2018-06-03T02:41:41.002Z,20.10
2018-06-03T02:44:08.535Z,20.10
2018-06-03T02:46:36.034Z,20.10
2018-06-03T02:49:05.537Z,20.10
2018-06-03T02:54:01.936Z,20.10
2018-06-03T02:56:29.758Z,20.10
2018-06-03T02:58:57.273Z,20.10
2018-06-03T03:01:24.886Z,20.10
2018-06-03T03:06:19.894Z,20.20
2018-06-03T03:08:47.460Z,20.10
2018-06-03T03:11:15.400Z,20.10
2018-06-03T03:16:11.458Z,20.20
2018-06-03T03:18:38.964Z,20.10
2018-06-03T03:21:09.641Z,20.00
2018-06-03T03:23:37.166Z,20.00
2018-06-03T03:26:05.897Z,20.00
2018-06-03T03:28:33.489Z,20.00
2018-06-03T03:31:01.056Z,20.00
2018-06-03T03:33:28.610Z,20.00
2018-06-03T03:38:28.977Z,19.90
2018-06-03T03:40:56.641Z,20.10
2018-06-03T03:43:24.801Z,19.80
2018-06-03T03:45:53.584Z,19.70
2018-06-03T03:50:49.612Z,19.90
2018-06-03T03:53:17.421Z,20.00
2018-06-03T03:58:12.374Z,19.90
2018-06-03T04:00:39.886Z,19.60
2018-06-03T04:03:07.535Z,19.70
2018-06-03T04:08:02.569Z,19.90
2018-06-03T04:10:30.960Z,20.10
2018-06-03T04:12:59.072Z,19.60
2018-06-03T04:15:27.561Z,19.90
2018-06-03T04:17:57.176Z,19.70
2018-06-03T04:20:24.669Z,19.90
2018-06-03T04:22:52.601Z,19.50
2018-06-03T04:25:22.106Z,20.30
2018-06-03T04:27:49.938Z,20.00
2018-06-03T04:32:44.814Z,20.10
2018-06-03T04:35:12.385Z,20.20
2018-06-03T04:47:24.947Z,20.40
2018-06-03T04:49:52.429Z,20.60
2018-06-03T04:52:19.949Z,20.00
2018-06-03T04:54:47.870Z,20.50
2018-06-03T04:57:15.452Z,20.60
2018-06-03T04:59:44.950Z,20.60
2018-06-03T05:02:12.518Z,20.60
2018-06-03T05:04:40.177Z,20.70
2018-06-03T05:07:08.839Z,20.90
2018-06-03T05:09:36.397Z,20.70
2018-06-03T05:14:34.528Z,20.80
2018-06-03T05:17:02.082Z,20.90
2018-06-03T05:19:29.672Z,21.00
2018-06-03T05:24:24.699Z,20.70
2018-06-03T05:26:52.171Z,21.00
2018-06-03T05:29:21.341Z,21.10
2018-06-03T05:31:48.913Z,20.30
2018-06-03T05:34:16.464Z,20.80
2018-06-03T05:36:43.981Z,21.10
2018-06-03T05:39:13.012Z,21.00
2018-06-03T05:44:08.125Z,21.40
2018-06-03T05:49:03.224Z,22.00
2018-06-03T05:51:30.714Z,21.80
2018-06-03T05:56:25.644Z,21.60
2018-06-03T06:03:48.092Z,21.50
2018-06-03T06:06:15.585Z,21.40
2018-06-03T06:13:38.104Z,21.60
2018-06-03T06:16:05.951Z,21.90
2018-06-03T06:18:33.452Z,22.20
2018-06-03T06:21:07.665Z,22.50
2018-06-03T06:23:35.195Z,22.40
2018-06-03T06:26:03.235Z,22.80
2018-06-03T06:28:30.754Z,23.10
2018-06-03T06:30:58.300Z,23.40
2018-06-03T06:33:25.801Z,23.70
2018-06-03T06:38:21.317Z,24.30
2018-06-03T06:43:16.379Z,25.30
2018-06-03T06:48:11.839Z,25.90
2018-06-03T06:50:39.392Z,25.50
2018-06-03T06:53:06.937Z,25.10
2018-06-03T06:55:34.518Z,24.90
2018-06-03T07:00:30.832Z,25.80
2018-06-03T07:02:58.351Z,26.00
2018-06-03T07:05:30.604Z,27.40
2018-06-03T07:07:59.096Z,28.30
2018-06-03T07:12:54.565Z,27.40
2018-06-03T07:15:22.141Z,27.00
2018-06-03T07:30:03.894Z,28.00
2018-06-03T07:34:58.951Z,29.00
2018-06-03T07:39:55.860Z,28.30
2018-06-03T07:42:27.032Z,27.80
2018-06-03T07:59:43.313Z,27.30
2018-06-03T08:02:10.862Z,27.30
2018-06-03T08:04:38.439Z,27.60
2018-06-03T08:07:06.402Z,27.60
2018-06-03T08:09:36.288Z,27.60
2018-06-03T08:17:01.210Z,27.40
2018-06-03T08:19:32.607Z,27.50
2018-06-03T08:22:01.803Z,27.60
2018-06-03T08:24:29.427Z,27.50
2018-06-03T08:26:57.302Z,27.10
2018-06-03T08:32:00.005Z,26.40
2018-06-03T08:34:28.139Z,25.80
2018-06-03T08:36:58.885Z,25.60
2018-06-03T08:39:26.497Z,25.60
2018-06-03T08:41:54.035Z,25.50
2018-06-03T08:46:50.656Z,25.10
2018-06-03T08:49:18.228Z,25.00
2018-06-03T09:01:35.995Z,24.80
2018-06-03T09:04:04.433Z,24.80
2018-06-03T09:06:31.984Z,24.80
2018-06-03T09:09:00.056Z,24.80
2018-06-03T09:11:27.623Z,24.70
2018-06-03T09:13:56.195Z,24.60
2018-06-03T09:16:24.186Z,24.30
2018-06-03T09:18:52.464Z,24.30
2018-06-03T09:21:21.939Z,24.10
2018-06-03T09:23:51.392Z,24.00
2018-06-03T09:28:53.830Z,24.10
2018-06-03T09:31:22.046Z,24.10
2018-06-03T09:36:17.163Z,24.10
2018-06-03T09:38:44.681Z,24.20
2018-06-03T09:41:12.356Z,24.20
2018-06-03T09:53:25.084Z,24.20
2018-06-03T09:55:52.657Z,24.30
2018-06-03T09:58:20.206Z,24.40
2018-06-03T10:00:47.773Z,24.50
2018-06-03T10:03:15.633Z,24.50
2018-06-03T10:05:44.541Z,24.70
2018-06-03T10:15:35.632Z,25.40
2018-06-03T10:18:03.272Z,25.40
2018-06-03T10:20:30.860Z,25.70
2018-06-03T10:25:26.755Z,26.10
2018-06-03T10:27:58.109Z,26.30
2018-06-03T10:30:25.733Z,26.50
2018-06-03T10:32:58.197Z,26.70
2018-06-03T10:37:54.447Z,27.10
2018-06-03T10:40:23.515Z,27.30
2018-06-03T10:45:21.524Z,27.40
2018-06-03T10:47:53.002Z,27.40
2018-06-03T10:50:21.987Z,27.30
2018-06-03T10:52:49.529Z,27.10
2018-06-03T10:55:19.681Z,26.90
2018-06-03T11:02:43.392Z,26.50
2018-06-03T11:17:24.804Z,26.90
2018-06-03T11:22:19.943Z,27.30
2018-06-03T11:24:48.929Z,27.50
2018-06-03T11:32:12.734Z,27.50
2018-06-03T11:34:41.377Z,27.70
2018-06-03T11:37:09.035Z,27.80
2018-06-03T11:39:37.443Z,27.80
2018-06-03T11:47:00.757Z,27.80
2018-06-03T11:51:57.316Z,28.00
2018-06-03T11:54:25.945Z,28.10
2018-06-03T11:59:47.026Z,28.30
2018-06-03T12:02:17.414Z,27.70
2018-06-03T12:04:45.209Z,27.80
2018-06-03T12:07:14.783Z,27.60
2018-06-03T12:09:42.419Z,27.50
2018-06-03T12:12:10.000Z,27.30
2018-06-03T12:14:37.550Z,27.20
2018-06-03T12:17:05.407Z,27.10
2018-06-03T12:19:33.582Z,27.10
2018-06-03T12:22:09.293Z,27.20
2018-06-03T12:29:32.480Z,26.80
2018-06-03T12:32:00.347Z,26.90
2018-06-03T12:34:28.309Z,27.00
2018-06-03T12:36:55.874Z,27.30
2018-06-03T12:39:23.505Z,27.40
2018-06-03T12:41:52.202Z,27.60
2018-06-03T12:44:19.823Z,27.70
2018-06-03T12:46:47.423Z,27.90
2018-06-03T12:49:15.745Z,27.90
2018-06-03T13:01:28.384Z,27.90
2018-06-03T13:03:55.956Z,27.40
2018-06-03T13:06:23.846Z,27.70
2018-06-03T13:11:18.789Z,27.40
2018-06-03T13:13:48.380Z,27.40
2018-06-03T13:16:16.065Z,27.20
2018-06-03T13:18:43.655Z,27.20
2018-06-03T13:21:11.236Z,26.80
2018-06-03T13:23:39.507Z,27.30
2018-06-03T13:26:07.716Z,27.50
2018-06-03T13:28:38.599Z,27.80
2018-06-03T13:31:06.308Z,27.40
2018-06-03T13:36:07.764Z,27.60
2018-06-03T13:38:38.992Z,26.70
2018-06-03T13:41:07.556Z,27.10
2018-06-03T13:46:09.663Z,27.30
2018-06-03T13:48:37.262Z,27.00
2018-06-03T13:51:04.955Z,26.70
2018-06-03T13:56:01.673Z,27.70
2018-06-03T13:58:31.335Z,27.50
2018-06-03T14:00:58.886Z,27.20
2018-06-03T14:05:54.140Z,27.40
2018-06-03T14:08:21.732Z,27.30
2018-06-03T14:13:20.234Z,27.40
2018-06-03T14:15:48.749Z,27.40
2018-06-03T14:18:17.527Z,27.30
2018-06-03T14:20:45.769Z,27.30
2018-06-03T14:25:42.224Z,26.90
2018-06-03T14:28:09.790Z,27.30
2018-06-03T14:30:37.712Z,27.10
2018-06-03T14:33:05.587Z,27.20
2018-06-03T14:35:33.427Z,27.10
2018-06-03T14:38:00.983Z,27.10
2018-06-03T14:40:32.841Z,27.10
2018-06-03T14:45:27.829Z,27.00
2018-06-03T14:47:56.124Z,27.40
2018-06-03T14:50:23.723Z,26.90
2018-06-03T14:52:51.762Z,26.30
2018-06-03T14:55:19.611Z,26.70
2018-06-03T15:01:21.880Z,26.60
2018-06-03T15:03:50.469Z,26.60
2018-06-03T15:06:18.531Z,26.60
2018-06-03T15:08:46.902Z,26.60
2018-06-03T15:11:16.111Z,26.60
2018-06-03T15:13:43.718Z,26.60
2018-06-03T15:16:11.588Z,26.50
2018-06-03T15:18:39.156Z,26.50
2018-06-03T15:21:06.879Z,26.70
2018-06-03T15:23:35.264Z,25.90
2018-06-03T15:26:02.821Z,26.30
2018-06-03T15:28:30.378Z,26.20
2018-06-03T15:31:01.288Z,26.30
2018-06-03T15:35:56.259Z,26.10
2018-06-03T15:38:24.206Z,26.20
2018-06-03T15:40:52.058Z,26.20
2018-06-03T15:43:20.242Z,26.20
2018-06-03T15:45:47.743Z,26.30
2018-06-03T15:48:15.615Z,26.30
2018-06-03T15:50:44.044Z,26.30
2018-06-03T15:53:13.159Z,26.30
2018-06-03T15:55:40.730Z,26.20
2018-06-03T15:58:08.293Z,26.20
2018-06-03T16:00:35.922Z,26.20
2018-06-03T16:03:09.095Z,26.10
2018-06-03T16:05:36.617Z,26.10
2018-06-03T16:08:04.594Z,26.00
2018-06-03T16:10:32.722Z,26.00
2018-06-03T16:13:00.430Z,26.00
2018-06-03T16:15:29.001Z,26.00
2018-06-03T16:17:56.545Z,26.00
2018-06-03T16:20:24.826Z,26.00
2018-06-03T16:22:53.720Z,26.00
2018-06-03T16:30:17.228Z,26.00
2018-06-03T16:32:44.798Z,26.00
2018-06-03T16:35:12.382Z,25.90
2018-06-03T16:37:40.087Z,25.90
2018-06-03T16:40:08.076Z,25.90
2018-06-03T16:42:35.643Z,25.90
2018-06-03T16:45:04.600Z,25.90
2018-06-03T16:47:33.418Z,25.90
2018-06-03T16:50:02.037Z,25.90
2018-06-03T16:52:34.576Z,25.90
2018-06-03T16:55:04.178Z,25.90
2018-06-03T16:57:32.917Z,25.90
2018-06-03T17:00:04.895Z,25.80
2018-06-03T17:02:32.449Z,25.80
2018-06-03T17:05:00.928Z,25.80
2018-06-03T17:07:28.556Z,25.80
2018-06-03T17:09:56.629Z,28.60
2018-06-03T17:12:24.728Z,25.80
2018-06-03T17:14:53.334Z,25.70
2018-06-03T17:17:21.401Z,25.70
2018-06-03T17:19:49.819Z,25.70
2018-06-03T17:22:17.336Z,25.70
2018-06-03T17:24:45.519Z,25.60
2018-06-03T17:27:13.049Z,25.60
2018-06-03T17:29:40.649Z,25.60
2018-06-03T17:32:09.525Z,25.60
2018-06-03T17:34:37.079Z,25.60
2018-06-03T17:37:04.723Z,25.50
2018-06-03T17:39:32.467Z,25.50
2018-06-03T17:42:00.115Z,25.50
2018-06-03T17:44:27.707Z,25.50
2018-06-03T17:46:55.302Z,25.50
2018-06-03T17:49:22.961Z,25.50
2018-06-03T17:51:50.883Z,25.40
2018-06-03T17:54:18.437Z,25.40
2018-06-03T18:11:27.831Z,25.40
2018-06-03T18:13:56.040Z,25.30
2018-06-03T18:16:23.664Z,25.30
2018-06-03T18:18:51.237Z,25.20
2018-06-03T18:21:18.778Z,25.20
2018-06-03T18:23:46.416Z,25.10
2018-06-03T18:26:14.299Z,25.10
2018-06-03T18:28:42.018Z,25.10
2018-06-03T18:33:42.656Z,25.10
2018-06-03T18:36:10.512Z,25.00
2018-06-03T18:38:41.182Z,25.00
2018-06-03T18:41:08.880Z,24.90
2018-06-03T18:46:10.864Z,24.90
2018-06-03T18:48:39.257Z,24.90
2018-06-03T18:51:06.829Z,24.90
2018-06-03T18:53:34.731Z,24.80
2018-06-03T18:56:02.357Z,24.80
2018-06-03T18:58:30.272Z,24.70
2018-06-03T19:00:58.453Z,24.70
2018-06-03T19:03:26.038Z,24.70
2018-06-03T19:05:53.602Z,24.70
2018-06-03T19:10:48.686Z,24.60
2018-06-03T19:13:16.382Z,24.60
2018-06-03T19:15:44.109Z,24.60
2018-06-03T19:18:11.788Z,24.60
2018-06-03T19:25:41.365Z,24.60
2018-06-03T19:28:09.065Z,24.60
2018-06-03T19:33:04.249Z,24.50
2018-06-03T19:35:31.932Z,24.60
2018-06-03T19:37:59.493Z,24.60
2018-06-03T19:40:29.283Z,24.50
2018-06-03T19:42:56.858Z,24.50
2018-06-03T19:45:24.537Z,24.50
2018-06-03T19:50:22.650Z,24.50
2018-06-03T19:52:52.573Z,24.50
2018-06-03T19:57:47.723Z,24.30
2018-06-03T20:00:15.353Z,24.30
2018-06-03T20:02:42.905Z,24.30
2018-06-03T20:05:10.605Z,24.30
2018-06-03T20:07:38.340Z,24.20
2018-06-03T20:10:07.131Z,24.20
2018-06-03T20:12:35.734Z,24.20
2018-06-03T20:15:03.365Z,24.10
2018-06-03T20:17:33.981Z,24.10
2018-06-03T20:20:01.999Z,24.10
2018-06-03T20:22:32.582Z,24.00
2018-06-03T20:27:28.011Z,23.90
2018-06-03T21:24:03.088Z,23.20
2018-06-03T21:26:33.464Z,23.20
2018-06-03T21:29:07.125Z,23.20
2018-06-03T21:31:36.358Z,23.10
2018-06-03T21:34:06.596Z,23.30
2018-06-03T21:36:34.825Z,23.30
2018-06-03T21:39:09.828Z,23.10
2018-06-03T21:41:39.139Z,23.20
2018-06-03T21:44:13.429Z,23.30
2018-06-03T21:46:43.668Z,23.10
2018-06-03T21:49:14.314Z,23.30
2018-06-03T21:51:42.244Z,23.30
2018-06-03T21:56:38.638Z,23.30
2018-06-03T22:01:35.940Z,23.30
2018-06-03T22:04:06.255Z,23.30
2018-06-03T22:14:01.395Z,23.20
2018-06-03T22:16:31.491Z,23.30
2018-06-03T22:18:59.901Z,26.30
2018-06-03T22:21:28.984Z,23.20
2018-06-03T22:23:57.916Z,23.20
2018-06-03T22:26:27.090Z,23.20
2018-06-03T22:28:56.475Z,23.20
2018-06-03T22:31:28.695Z,23.20
2018-06-03T22:33:57.544Z,23.20
2018-06-03T22:36:27.353Z,23.20
2018-06-03T22:38:56.541Z,23.10
2018-06-03T22:41:25.325Z,23.20
2018-06-03T22:43:54.817Z,22.80
2018-06-03T22:46:23.036Z,22.70
2018-06-03T22:48:51.559Z,23.20
2018-06-03T22:56:20.472Z,23.00
2018-06-03T22:58:52.581Z,23.00
2018-06-03T23:03:49.141Z,22.80
2018-06-03T23:08:46.191Z,22.90
2018-06-03T23:11:15.595Z,23.20
2018-06-03T23:16:12.726Z,22.70
2018-06-03T23:18:41.660Z,23.20
2018-06-03T23:21:11.625Z,22.80
2018-06-03T23:23:39.805Z,22.80
2018-06-03T23:26:08.504Z,22.50
2018-06-03T23:28:41.152Z,22.70
2018-06-03T23:31:09.577Z,23.20
2018-06-03T23:33:39.312Z,22.50
2018-06-03T23:36:10.198Z,22.80
2018-06-03T23:43:36.364Z,22.90
